Time;durP1;ratioP1;P1;durP2;ratioP2;P2;SDS_P1;SDS_P2;PMS_P1;PMS_P2;Temp;Humidity;BMP_temperature;BMP_pressure;BME280_temperature;BME280_humidity;BME280_pressure;Samples;Min_cycle;Max_cycle;Signal;HPM_P1;HPM_P2
2023/06/28 00:02:20;;;;;;;2.53;2.33;;;;;;;-146.25;100.00;57403.91;5043325;28;20208;-86
2023/06/28 00:04:51;;;;;;;2.35;2.25;;;;;;;-146.25;100.00;57403.91;5041184;28;20216;-88
2023/06/28 00:07:18;;;;;;;3.42;2.90;;;;;;;-146.25;100.00;57403.91;5031524;28;20647;-87
2023/06/28 00:09:45;;;;;;;3.10;2.90;;;;;;;-146.25;100.00;57403.91;5031360;28;20199;-87
2023/06/28 00:12:12;;;;;;;3.83;3.40;;;;;;;-146.25;100.00;57403.91;5031044;28;20223;-88
2023/06/28 00:14:39;;;;;;;7.50;3.35;;;;;;;-146.25;100.00;57403.91;5031204;28;20639;-86
2023/06/28 00:17:06;;;;;;;3.42;3.22;;;;;;;-146.25;100.00;57403.91;5030888;28;20243;-86
2023/06/28 00:19:33;;;;;;;5.97;2.72;;;;;;;-146.25;100.00;57403.91;5031184;28;20234;-86
2023/06/28 00:22:03;;;;;;;3.08;2.88;;;;;;;-146.25;100.00;57403.91;5031380;28;20291;-88
2023/06/28 00:24:30;;;;;;;3.33;3.13;;;;;;;-146.25;100.00;57403.91;5030167;28;20593;-86
2023/06/28 00:26:57;;;;;;;3.25;3.05;;;;;;;-146.25;100.00;57403.91;5031490;28;20337;-86
2023/06/28 00:29:24;;;;;;;2.97;2.80;;;;;;;-146.25;100.00;57403.91;5031880;28;20220;-86
2023/06/28 00:31:51;;;;;;;5.15;3.38;;;;;;;-146.25;100.00;57403.91;5030462;28;20221;-87
2023/06/28 00:34:18;;;;;;;4.50;4.00;;;;;;;-146.25;100.00;57403.91;5030413;28;20674;-86
2023/06/28 00:36:45;;;;;;;2.90;2.67;;;;;;;-146.25;100.00;57403.91;5029903;28;20212;-85
2023/06/28 00:39:14;;;;;;;3.63;3.33;;;;;;;-146.25;100.00;57403.91;5029912;28;20234;-86
2023/06/28 00:41:40;;;;;;;4.03;3.55;;;;;;;-146.25;100.00;57403.91;5030408;28;20643;-86
2023/06/28 00:44:07;;;;;;;3.00;2.90;;;;;;;-146.25;100.00;57403.91;5030300;28;20629;-86
2023/06/28 00:46:35;;;;;;;3.42;3.15;;;;;;;-146.25;100.00;57403.91;5030705;28;20315;-87
2023/06/28 00:49:03;;;;;;;3.80;3.50;;;;;;;-146.25;100.00;57403.91;5041642;28;20207;-87
2023/06/28 00:51:32;;;;;;;3.85;3.55;;;;;;;-146.25;100.00;57403.91;5050017;28;20257;-86
2023/06/28 00:53:59;;;;;;;3.97;3.33;;;;;;;-146.25;100.00;57403.91;5051209;28;20784;-86
2023/06/28 00:56:30;;;;;;;3.97;3.67;;;;;;;-146.25;100.00;57403.91;5049985;28;20202;-86
2023/06/28 00:58:57;;;;;;;4.47;3.58;;;;;;;-146.25;100.00;57403.91;5051013;28;20310;-86
2023/06/28 01:01:25;;;;;;;4.50;4.05;;;;;;;-146.25;100.00;57403.91;5051005;28;20209;-86
2023/06/28 01:03:53;;;;;;;3.45;3.15;;;;;;;-146.25;100.00;57403.91;5051679;28;20207;-87
2023/06/28 01:06:21;;;;;;;6.72;3.95;;;;;;;-146.25;100.00;57403.91;5049192;28;20586;-86
2023/06/28 01:08:50;;;;;;;4.15;3.85;;;;;;;-146.25;100.00;57403.91;5030960;28;20301;-88
2023/06/28 01:11:17;;;;;;;4.10;3.80;;;;;;;-146.25;100.00;57403.91;5029749;28;20798;-87
2023/06/28 01:13:47;;;;;;;4.25;3.95;;;;;;;-146.25;100.00;57403.91;5029756;28;20321;-86
2023/06/28 01:16:14;;;;;;;4.35;4.05;;;;;;;-146.25;100.00;57403.91;5030206;28;20201;-88
2023/06/28 01:18:41;;;;;;;8.27;3.58;;;;;;;-146.25;100.00;57403.91;5029772;28;20244;-85
2023/06/28 01:21:10;;;;;;;4.55;4.25;;;;;;;-146.25;100.00;57403.91;5029739;28;20206;-88
2023/06/28 01:23:39;;;;;;;4.85;4.45;;;;;;;-146.25;100.00;57403.91;5029497;28;20277;-87
2023/06/28 01:26:07;;;;;;;5.55;4.25;;;;;;;-146.25;100.00;57403.91;5029706;28;20648;-86
2023/06/28 01:28:35;;;;;;;5.10;4.65;;;;;;;-146.25;100.00;57403.91;5030230;28;20212;-86
2023/06/28 01:31:05;;;;;;;5.78;5.28;;;;;;;-146.25;100.00;57403.91;5030502;28;20192;-88
2023/06/28 01:33:35;;;;;;;5.50;4.95;;;;;;;-146.25;100.00;57403.91;5029090;28;20207;-86
2023/06/28 01:36:09;;;;;;;5.32;4.82;;;;;;;-146.25;100.00;57403.91;5028909;28;20202;-86
2023/06/28 01:41:23;;;;;;;5.45;4.90;;;;;;;-146.25;100.00;57403.91;5027058;28;20219;-87
2023/06/28 01:43:50;;;;;;;5.10;4.65;;;;;;;-146.25;100.00;57403.91;5044472;28;20208;-85
2023/06/28 01:46:17;;;;;;;7.60;6.32;;;;;;;-146.25;100.00;57403.91;5037916;28;20217;-86
2023/06/28 01:48:44;;;;;;;8.63;6.85;;;;;;;-146.25;100.00;57403.91;5041866;28;20266;-85
2023/06/28 01:51:11;;;;;;;17.65;11.07;;;;;;;-146.25;100.00;57403.91;5044424;28;20321;-86
2023/06/28 01:53:40;;;;;;;7.72;6.63;;;;;;;-146.25;100.00;57403.91;5042441;28;20207;-86
2023/06/28 01:56:09;;;;;;;7.30;6.60;;;;;;;-146.25;100.00;57403.91;5036301;28;20697;-85
2023/06/28 01:58:36;;;;;;;6.90;6.30;;;;;;;-146.25;100.00;57403.91;5035535;28;20433;-86
2023/06/28 02:01:05;;;;;;;7.88;6.85;;;;;;;-146.25;100.00;57403.91;5028887;28;20213;-85
2023/06/28 02:03:33;;;;;;;6.97;6.28;;;;;;;-146.25;100.00;57403.91;5029222;28;20789;-86
2023/06/28 02:06:00;;;;;;;7.10;6.45;;;;;;;-146.25;100.00;57403.91;5029090;28;20370;-86
2023/06/28 02:08:26;;;;;;;5.97;5.47;;;;;;;-146.25;100.00;57403.91;5028470;28;20206;-86
2023/06/28 02:10:55;;;;;;;7.63;6.68;;;;;;;-146.25;100.00;57403.91;5029103;28;20192;-86
2023/06/28 02:13:22;;;;;;;6.97;6.28;;;;;;;-146.25;100.00;57403.91;5029562;28;20199;-86
2023/06/28 02:15:49;;;;;;;7.22;6.43;;;;;;;-146.25;100.00;57403.91;5028364;28;20210;-86
2023/06/28 02:18:16;;;;;;;10.38;7.10;;;;;;;-146.25;100.00;57403.91;5029064;28;20232;-86
2023/06/28 02:20:44;;;;;;;7.20;6.43;;;;;;;-146.25;100.00;57403.91;5029002;28;20652;-85
2023/06/28 02:23:11;;;;;;;10.68;7.35;;;;;;;-146.25;100.00;57403.91;5027809;28;20696;-86
2023/06/28 02:25:38;;;;;;;9.30;7.15;;;;;;;-146.25;100.00;57403.91;5028439;28;20210;-86
2023/06/28 02:28:07;;;;;;;7.68;6.90;;;;;;;-146.25;100.00;57403.91;5029050;28;20296;-85
2023/06/28 02:30:34;;;;;;;7.50;6.43;;;;;;;-146.25;100.00;57403.91;5028356;28;20198;-84
2023/06/28 02:33:04;;;;;;;9.95;7.13;;;;;;;-146.25;100.00;57403.91;5029378;28;20214;-85
2023/06/28 02:35:31;;;;;;;7.25;6.45;;;;;;;-146.25;100.00;57403.91;5027993;28;20272;-85
2023/06/28 02:38:00;;;;;;;8.45;6.72;;;;;;;-146.25;100.00;57403.91;5027769;28;20241;-87
2023/06/28 02:40:26;;;;;;;8.18;6.78;;;;;;;-146.25;100.00;57403.91;5029073;28;20649;-87
2023/06/28 02:42:55;;;;;;;8.57;6.82;;;;;;;-146.25;100.00;57403.91;5029321;28;20205;-86
2023/06/28 02:45:23;;;;;;;9.65;7.32;;;;;;;-146.25;100.00;57403.91;5028270;28;20197;-86
2023/06/28 02:47:50;;;;;;;6.93;6.30;;;;;;;-146.25;100.00;57403.91;5026781;28;20199;-86
2023/06/28 02:50:17;;;;;;;7.65;6.88;;;;;;;-146.25;100.00;57403.91;5028077;28;20322;-86
2023/06/28 02:52:44;;;;;;;7.65;6.95;;;;;;;-146.25;100.00;57403.91;5028898;28;20683;-86
2023/06/28 02:55:14;;;;;;;8.57;6.70;;;;;;;-146.25;100.00;57403.91;5029217;28;20245;-86
2023/06/28 02:57:50;;;;;;;8.63;7.03;;;;;;;-146.25;100.00;57403.91;5034853;28;20205;-85
2023/06/28 03:00:17;;;;;;;8.13;7.00;;;;;;;-146.25;100.00;57403.91;5048145;28;20204;-86
2023/06/28 03:02:46;;;;;;;6.68;6.03;;;;;;;-146.25;100.00;57403.91;5047841;28;20312;-85
2023/06/28 03:05:13;;;;;;;7.30;6.40;;;;;;;-146.25;100.00;57403.91;5032088;28;20237;-85
2023/06/28 03:07:39;;;;;;;7.47;6.65;;;;;;;-146.25;100.00;57403.91;5036480;28;20268;-85
2023/06/28 03:10:08;;;;;;;8.10;6.88;;;;;;;-146.25;100.00;57403.91;5042577;28;20239;-86
2023/06/28 03:12:37;;;;;;;7.38;6.68;;;;;;;-146.25;100.00;57403.91;4960957;28;20659;-85
2023/06/28 03:15:07;;;;;;;6.85;6.20;;;;;;;-146.25;100.00;57403.91;4949726;28;20229;-86
2023/06/28 03:17:34;;;;;;;7.35;6.65;;;;;;;-146.25;100.00;57403.91;5008184;28;20556;-87
2023/06/28 03:20:02;;;;;;;6.50;5.95;;;;;;;-146.25;100.00;57403.91;5038393;28;20311;-88
2023/06/28 03:22:29;;;;;;;7.85;7.07;;;;;;;-146.25;100.00;57403.91;5046176;28;20660;-87
2023/06/28 03:24:56;;;;;;;8.65;6.20;;;;;;;-146.25;100.00;57403.91;5046619;28;20347;-87
2023/06/28 03:27:24;;;;;;;7.10;6.45;;;;;;;-146.25;100.00;57403.91;5046594;28;20232;-87
2023/06/28 03:29:51;;;;;;;7.00;6.22;;;;;;;-146.25;100.00;57403.91;5046323;28;20227;-88
2023/06/28 03:32:18;;;;;;;6.88;6.38;;;;;;;-146.25;100.00;57403.91;5046601;28;20232;-88
2023/06/28 03:34:45;;;;;;;7.72;6.97;;;;;;;-146.25;100.00;57403.91;5046254;28;20309;-88
2023/06/28 03:37:16;;;;;;;7.10;6.35;;;;;;;-146.25;100.00;57403.91;5046528;28;20223;-89
2023/06/28 03:39:43;;;;;;;7.35;6.55;;;;;;;-146.25;100.00;57403.91;5045564;28;20295;-88
2023/06/28 03:42:10;;;;;;;6.72;6.13;;;;;;;-146.25;100.00;57403.91;5047258;28;20333;-88
2023/06/28 03:44:37;;;;;;;7.38;6.35;;;;;;;-146.25;100.00;57403.91;5046349;28;20287;-89
2023/06/28 03:47:04;;;;;;;7.07;6.43;;;;;;;-146.25;100.00;57403.91;5049125;28;20223;-89
2023/06/28 03:49:31;;;;;;;7.40;6.55;;;;;;;-146.25;100.00;57403.91;5043452;28;20271;-89
2023/06/28 03:51:58;;;;;;;7.07;6.38;;;;;;;-146.25;100.00;57403.91;5046106;28;20227;-87
2023/06/28 03:54:27;;;;;;;8.45;6.50;;;;;;;-146.25;100.00;57403.91;5046282;28;20796;-88
2023/06/28 03:56:53;;;;;;;6.47;5.90;;;;;;;-146.25;100.00;57403.91;5045276;28;20695;-88
2023/06/28 03:59:20;;;;;;;7.40;6.75;;;;;;;-146.25;100.00;57403.91;5050832;28;20319;-89
2023/06/28 04:01:48;;;;;;;6.88;6.22;;;;;;;-146.25;100.00;57403.91;5056872;28;20224;-88
2023/06/28 04:04:17;;;;;;;7.03;6.43;;;;;;;-146.25;100.00;57403.91;5057696;28;20276;-88
2023/06/28 04:06:45;;;;;;;7.63;6.38;;;;;;;-146.25;100.00;57403.91;5070133;28;20238;-88
2023/06/28 04:09:11;;;;;;;8.60;6.85;;;;;;;-146.25;100.00;57403.91;5075450;28;20219;-88
2023/06/28 04:11:40;;;;;;;9.15;6.43;;;;;;;-146.25;100.00;57403.91;5054728;28;20223;-89
2023/06/28 04:14:07;;;;;;;6.93;6.32;;;;;;;-146.25;100.00;57403.91;5051676;28;20231;-88
2023/06/28 04:16:34;;;;;;;6.32;5.82;;;;;;;-146.25;100.00;57403.91;5050256;28;20238;-88
2023/06/28 04:19:01;;;;;;;6.60;5.95;;;;;;;-146.25;100.00;57403.91;5047440;28;20318;-88
2023/06/28 04:21:28;;;;;;;7.35;6.07;;;;;;;-146.25;100.00;57403.91;5050054;28;20877;-88
2023/06/28 04:23:55;;;;;;;6.72;6.13;;;;;;;-146.25;100.00;57403.91;5050371;28;20243;-88
2023/06/28 04:26:22;;;;;;;6.45;5.93;;;;;;;-146.25;100.00;57403.91;5049303;28;20610;-88
2023/06/28 04:28:50;;;;;;;6.82;6.38;;;;;;;-146.25;100.00;57403.91;5048842;28;20703;-88
2023/06/28 04:31:17;;;;;;;7.00;6.32;;;;;;;-146.25;100.00;57403.91;5050215;28;20302;-87
2023/06/28 04:33:46;;;;;;;6.70;6.03;;;;;;;-146.25;100.00;57403.91;5049222;28;20269;-90
2023/06/28 04:36:14;;;;;;;7.28;6.55;;;;;;;-146.25;100.00;57403.91;5048262;28;20702;-88
2023/06/28 04:38:44;;;;;;;6.90;6.40;;;;;;;-146.25;100.00;57403.91;5049155;28;20324;-88
2023/06/28 04:41:11;;;;;;;6.68;6.15;;;;;;;-146.25;100.00;57403.91;5050579;28;20315;-87
2023/06/28 04:43:43;;;;;;;6.88;6.28;;;;;;;-146.25;100.00;57403.91;5048244;28;20243;-87
2023/06/28 04:46:12;;;;;;;6.30;5.68;;;;;;;-146.25;100.00;57403.91;5048763;28;20287;-87
2023/06/28 04:48:40;;;;;;;7.30;6.60;;;;;;;-146.25;100.00;57403.91;5048806;28;20633;-88
2023/06/28 04:51:07;;;;;;;6.65;6.13;;;;;;;-146.25;100.00;57403.91;5050145;28;20235;-88
2023/06/28 04:53:36;;;;;;;5.50;5.07;;;;;;;-146.25;100.00;57403.91;5050820;28;20611;-89
2023/06/28 04:56:24;;;;;;;6.22;5.82;;;;;;;-146.25;100.00;57403.91;5050953;28;20318;-87
2023/06/28 04:58:51;;;;;;;6.10;5.60;;;;;;;-146.25;100.00;57403.91;5049531;28;20556;-86
2023/06/28 05:01:20;;;;;;;6.70;6.10;;;;;;;-146.25;100.00;57403.91;5050899;28;20222;-87
2023/06/28 05:03:47;;;;;;;7.07;6.47;;;;;;;-146.25;100.00;57403.91;5048945;28;20222;-87
2023/06/28 05:06:14;;;;;;;6.30;5.82;;;;;;;-146.25;100.00;57403.91;5051025;28;20223;-87
2023/06/28 05:08:41;;;;;;;7.05;6.38;;;;;;;-146.25;100.00;57403.91;5050421;28;20284;-88
2023/06/28 05:11:09;;;;;;;7.10;6.43;;;;;;;-146.25;100.00;57403.91;5049347;28;20261;-89
2023/06/28 05:13:36;;;;;;;6.53;6.03;;;;;;;-146.25;100.00;57403.91;5062441;28;20767;-87
2023/06/28 05:16:03;;;;;;;10.48;6.70;;;;;;;-146.25;100.00;57403.91;5050801;28;20952;-87
2023/06/28 05:18:32;;;;;;;6.82;5.95;;;;;;;-146.25;100.00;57403.91;5044745;28;20239;-87
2023/06/28 05:20:59;;;;;;;8.93;6.25;;;;;;;-146.25;100.00;57403.91;5029757;28;20232;-87
2023/06/28 05:23:27;;;;;;;5.82;5.43;;;;;;;-146.25;100.00;57403.91;5029439;28;20292;-88
2023/06/28 05:25:54;;;;;;;6.90;6.25;;;;;;;-146.25;100.00;57403.91;5028943;28;20250;-87
2023/06/28 05:28:20;;;;;;;6.53;6.03;;;;;;;-146.25;100.00;57403.91;5028794;28;20223;-88
2023/06/28 05:30:47;;;;;;;6.10;5.68;;;;;;;-146.25;100.00;57403.91;5028419;28;20235;-87
2023/06/28 05:33:17;;;;;;;8.38;7.25;;;;;;;-146.25;100.00;57403.91;5029081;28;20230;-88
2023/06/28 05:35:45;;;;;;;6.82;6.30;;;;;;;-146.25;100.00;57403.91;5028519;28;20227;-88
2023/06/28 05:38:15;;;;;;;6.95;6.40;;;;;;;-146.25;100.00;57403.91;5029284;28;20734;-88
2023/06/28 05:40:42;;;;;;;7.10;6.50;;;;;;;-146.25;100.00;57403.91;5030097;28;20242;-87
2023/06/28 05:43:09;;;;;;;6.20;5.70;;;;;;;-146.25;100.00;57403.91;5029587;28;20306;-89
2023/06/28 05:45:36;;;;;;;7.35;6.75;;;;;;;-146.25;100.00;57403.91;5029159;28;20229;-88
2023/06/28 05:48:04;;;;;;;6.35;5.85;;;;;;;-146.25;100.00;57403.91;5029546;28;20227;-89
2023/06/28 05:50:31;;;;;;;6.78;6.05;;;;;;;-146.25;100.00;57403.91;5041192;28;20257;-88
2023/06/28 05:52:59;;;;;;;8.57;6.30;;;;;;;-146.25;100.00;57403.91;5048379;28;20214;-88
2023/06/28 05:55:26;;;;;;;6.82;6.22;;;;;;;-146.25;100.00;57403.91;5049611;28;20475;-88
2023/06/28 05:57:53;;;;;;;7.38;6.68;;;;;;;-146.25;100.00;57403.91;5048832;28;20230;-87
2023/06/28 06:00:20;;;;;;;7.13;6.43;;;;;;;-146.25;100.00;57403.91;5048721;28;20242;-88
2023/06/28 06:02:47;;;;;;;6.68;6.07;;;;;;;-146.25;100.00;57403.91;5048364;28;20638;-88
2023/06/28 06:05:15;;;;;;;6.80;6.30;;;;;;;-146.25;100.00;57403.91;5046919;28;20227;-88
2023/06/28 06:07:42;;;;;;;7.05;6.45;;;;;;;-146.25;100.00;57403.91;5047746;28;20230;-87
2023/06/28 06:10:11;;;;;;;7.95;7.15;;;;;;;-146.25;100.00;57403.91;5048475;28;20264;-88
2023/06/28 06:12:38;;;;;;;7.60;6.95;;;;;;;-146.25;100.00;57403.91;5048140;28;20234;-88
2023/06/28 06:15:06;;;;;;;7.95;7.25;;;;;;;-146.25;100.00;57403.91;5047976;28;20223;-89
2023/06/28 06:17:33;;;;;;;8.82;8.07;;;;;;;-146.25;100.00;57403.91;5048113;28;20231;-89
2023/06/28 06:20:00;;;;;;;8.45;7.25;;;;;;;-146.25;100.00;57403.91;5047446;28;20235;-86
2023/06/28 06:22:28;;;;;;;10.10;8.10;;;;;;;-146.25;100.00;57403.91;5047780;28;20228;-89
2023/06/28 06:24:55;;;;;;;8.65;7.03;;;;;;;-146.25;100.00;57403.91;5047870;28;20235;-88
2023/06/28 06:27:24;;;;;;;10.02;7.88;;;;;;;-146.25;100.00;57403.91;5047307;28;20231;-89
2023/06/28 06:29:51;;;;;;;8.20;7.40;;;;;;;-146.25;100.00;57403.91;5048190;28;20280;-88
2023/06/28 06:32:17;;;;;;;8.57;7.72;;;;;;;-146.25;100.00;57403.91;5048445;28;20223;-88
2023/06/28 06:34:45;;;;;;;10.90;7.88;;;;;;;-146.25;100.00;57403.91;5047006;28;20292;-87
2023/06/28 06:37:13;;;;;;;7.85;7.13;;;;;;;-146.25;100.00;57403.91;5047952;28;20219;-88
2023/06/28 06:39:40;;;;;;;7.63;6.93;;;;;;;-146.25;100.00;57403.91;5047380;28;20320;-88
2023/06/28 06:42:08;;;;;;;9.38;8.02;;;;;;;-146.25;100.00;57403.91;5047051;28;20856;-87
2023/06/28 06:44:37;;;;;;;8.80;7.45;;;;;;;-146.25;100.00;57403.91;5047693;28;20226;-88
2023/06/28 06:47:04;;;;;;;8.30;6.95;;;;;;;-146.25;100.00;57403.91;5047796;28;20281;-88
2023/06/28 06:49:31;;;;;;;7.28;6.63;;;;;;;-146.25;100.00;57403.91;5047413;28;20329;-89
2023/06/28 06:52:01;;;;;;;7.65;6.97;;;;;;;-146.25;100.00;57403.91;5047856;28;20229;-88
2023/06/28 06:54:29;;;;;;;6.80;6.30;;;;;;;-146.25;100.00;57403.91;5047395;28;20219;-87
2023/06/28 06:56:56;;;;;;;7.85;7.15;;;;;;;-146.25;100.00;57403.91;5047050;28;20235;-87
2023/06/28 06:59:23;;;;;;;6.97;6.43;;;;;;;-146.25;100.00;57403.91;5047821;28;20230;-88
2023/06/28 07:01:52;;;;;;;7.20;6.68;;;;;;;-146.25;100.00;57403.91;5047022;28;20711;-88
2023/06/28 07:04:38;;;;;;;;;;;;;;;;;;;;;
2023/06/28 07:07:25;;;;;;;7.25;6.55;;;;;;;-146.25;100.00;57403.91;5047665;28;20197;-88
2023/06/28 07:09:53;;;;;;;6.32;5.63;;;;;;;-146.25;100.00;57403.91;5048182;28;20193;-87
2023/06/28 07:12:22;;;;;;;6.43;5.88;;;;;;;-146.25;100.00;57403.91;5048252;28;20659;-88
2023/06/28 07:14:50;;;;;;;6.93;6.43;;;;;;;-146.25;100.00;57403.91;5048848;28;20260;-88
2023/06/28 07:17:19;;;;;;;6.78;6.30;;;;;;;-146.25;100.00;57403.91;5048807;28;20207;-87
2023/06/28 07:19:46;;;;;;;6.38;5.88;;;;;;;-146.25;100.00;57403.91;5048000;28;20238;-87
2023/06/28 07:22:14;;;;;;;5.85;5.22;;;;;;;-146.25;100.00;57403.91;5049059;28;20199;-88
2023/06/28 07:24:41;;;;;;;7.68;5.90;;;;;;;-146.25;100.00;57403.91;5048565;28;20211;-87
2023/06/28 07:27:08;;;;;;;6.32;5.75;;;;;;;-146.25;100.00;57403.91;5047203;28;20268;-86
2023/06/28 07:29:35;;;;;;;5.68;5.22;;;;;;;-146.25;100.00;57403.91;5047772;28;20387;-87
2023/06/28 07:32:02;;;;;;;5.65;5.15;;;;;;;-146.25;100.00;57403.91;5047589;28;20210;-86
2023/06/28 07:34:31;;;;;;;6.78;6.10;;;;;;;-146.25;100.00;57403.91;5049261;28;20633;-87
2023/06/28 07:36:58;;;;;;;6.07;5.53;;;;;;;-146.25;100.00;57403.91;5043896;28;20283;-87
2023/06/28 07:39:25;;;;;;;6.25;5.72;;;;;;;-146.25;100.00;57403.91;5032343;28;20219;-86
2023/06/28 07:41:53;;;;;;;9.02;6.30;;;;;;;-146.25;100.00;57403.91;5048076;28;20762;-88
2023/06/28 07:44:19;;;;;;;8.75;5.22;;;;;;;-146.25;100.00;57403.91;5042542;28;20312;-88
2023/06/28 07:46:46;;;;;;;5.47;4.97;;;;;;;-146.25;100.00;57403.91;5050900;28;20203;-88
2023/06/28 07:49:13;;;;;;;5.10;4.63;;;;;;;-146.25;100.00;57403.91;5042995;28;20207;-87
2023/06/28 07:51:42;;;;;;;5.60;5.10;;;;;;;-146.25;100.00;57403.91;5048045;28;20331;-87
2023/06/28 07:54:09;;;;;;;5.18;4.70;;;;;;;-146.25;100.00;57403.91;5065848;28;20203;-87
2023/06/28 07:56:36;;;;;;;5.25;4.82;;;;;;;-146.25;100.00;57403.91;5056929;28;20254;-88
2023/06/28 07:59:05;;;;;;;10.77;5.03;;;;;;;-146.25;100.00;57403.91;5051200;28;20241;-88
2023/06/28 08:01:33;;;;;;;5.07;4.70;;;;;;;-146.25;100.00;57403.91;5037292;28;20237;-87
2023/06/28 08:04:00;;;;;;;5.63;4.90;;;;;;;-146.25;100.00;57403.91;5050542;28;20259;-90
2023/06/28 08:06:28;;;;;;;4.20;3.97;;;;;;;-146.25;100.00;57403.91;5050564;28;20423;-88
2023/06/28 08:08:56;;;;;;;4.40;3.95;;;;;;;-146.25;100.00;57403.91;5049509;28;20653;-87
2023/06/28 08:11:23;;;;;;;5.30;4.90;;;;;;;-146.25;100.00;57403.91;5044149;28;20224;-87
2023/06/28 08:13:51;;;;;;;5.20;4.75;;;;;;;-146.25;100.00;57403.91;5032272;28;20770;-88
2023/06/28 08:16:18;;;;;;;4.82;4.45;;;;;;;-146.25;100.00;57403.91;5031015;28;20228;-87
2023/06/28 08:18:45;;;;;;;4.60;4.30;;;;;;;-146.25;100.00;57403.91;5029572;28;20307;-86
2023/06/28 08:21:13;;;;;;;4.45;4.15;;;;;;;-146.25;100.00;57403.91;5029627;28;20239;-87
2023/06/28 08:23:40;;;;;;;6.15;4.70;;;;;;;-146.25;100.00;57403.91;5031558;28;20306;-87
2023/06/28 08:26:08;;;;;;;4.72;4.43;;;;;;;-146.25;100.00;57403.91;5029373;28;20285;-87
2023/06/28 08:28:35;;;;;;;8.32;4.85;;;;;;;-146.25;100.00;57403.91;5033710;28;20246;-85
2023/06/28 08:31:02;;;;;;;4.82;4.53;;;;;;;-146.25;100.00;57403.91;5035139;28;20715;-88
2023/06/28 08:33:31;;;;;;;5.47;5.05;;;;;;;-146.25;100.00;57403.91;5044262;28;20222;-85
2023/06/28 08:35:58;;;;;;;6.70;4.68;;;;;;;-146.25;100.00;57403.91;5036795;28;20284;-87
2023/06/28 08:38:26;;;;;;;6.03;4.35;;;;;;;-146.25;100.00;57403.91;5039464;28;20273;-86
2023/06/28 08:40:53;;;;;;;5.00;4.65;;;;;;;-146.25;100.00;57403.91;5037591;28;20235;-87
2023/06/28 08:43:25;;;;;;;5.47;5.10;;;;;;;-146.25;100.00;57403.91;5034321;28;20288;-87
2023/06/28 08:45:54;;;;;;;5.43;4.90;;;;;;;-146.25;100.00;57403.91;5028902;28;20254;-87
2023/06/28 08:48:21;;;;;;;4.63;4.32;;;;;;;-146.25;100.00;57403.91;5029033;28;20277;-87
2023/06/28 08:50:50;;;;;;;4.75;4.38;;;;;;;-146.25;100.00;57403.91;5029825;28;20270;-89
2023/06/28 08:53:21;;;;;;;4.15;3.85;;;;;;;-146.25;100.00;57403.91;5029072;28;20211;-87
2023/06/28 08:55:51;;;;;;;4.85;4.55;;;;;;;-146.25;100.00;57403.91;5029582;28;20314;-88
2023/06/28 08:58:21;;;;;;;4.63;4.32;;;;;;;-146.25;100.00;57403.91;5032443;28;20223;-89
2023/06/28 09:00:53;;;;;;;4.72;4.45;;;;;;;-146.25;100.00;57403.91;5032817;28;20235;-89
2023/06/28 09:03:20;;;;;;;4.38;4.07;;;;;;;-146.25;100.00;57403.91;5030643;28;20227;-87
2023/06/28 09:05:48;;;;;;;5.15;4.70;;;;;;;-146.25;100.00;57403.91;5034428;28;20223;-88
2023/06/28 09:08:45;;;;;;;;;;;;;;;;;;;;;
2023/06/28 09:11:25;;;;;;;4.85;4.55;;;;;;;-146.25;100.00;57403.91;5028957;28;20225;-88
2023/06/28 09:13:52;;;;;;;4.93;4.43;;;;;;;-146.25;100.00;57403.91;5029955;28;20223;-87
2023/06/28 09:16:22;;;;;;;4.00;3.70;;;;;;;-146.25;100.00;57403.91;5031816;28;20231;-87
2023/06/28 09:18:50;;;;;;;4.75;4.25;;;;;;;-146.25;100.00;57403.91;5030603;28;20727;-87
2023/06/28 09:21:26;;;;;;;5.20;4.88;;;;;;;-146.25;100.00;57403.91;5028924;28;20239;-86
2023/06/28 09:23:54;;;;;;;5.15;4.75;;;;;;;-146.25;100.00;57403.91;5029037;28;20767;-87
2023/06/28 09:26:21;;;;;;;6.70;4.30;;;;;;;-146.25;100.00;57403.91;5027547;28;20778;-88
2023/06/28 09:28:50;;;;;;;7.30;4.88;;;;;;;-146.25;100.00;57403.91;5028419;28;20285;-89
2023/06/28 09:31:20;;;;;;;4.82;4.53;;;;;;;-146.25;100.00;57403.91;5039815;28;20306;-88
2023/06/28 09:33:54;;;;;;;7.25;4.68;;;;;;;-146.25;100.00;57403.91;5048731;28;20218;-89
2023/06/28 09:36:23;;;;;;;5.40;4.90;;;;;;;-146.25;100.00;57403.91;5049265;28;20223;-88
2023/06/28 09:38:50;;;;;;;6.00;5.40;;;;;;;-146.25;100.00;57403.91;5048779;28;20219;-88
2023/06/28 09:41:19;;;;;;;4.75;4.15;;;;;;;-146.25;100.00;57403.91;5047812;28;20235;-86
2023/06/28 09:43:48;;;;;;;7.85;4.60;;;;;;;-146.25;100.00;57403.91;5050398;28;20223;-91
2023/06/28 09:46:16;;;;;;;6.50;5.47;;;;;;;-146.25;100.00;57403.91;5049753;28;20234;-88
2023/06/28 09:48:46;;;;;;;4.93;4.63;;;;;;;-146.25;100.00;57403.91;5050689;28;20250;-86
2023/06/28 09:51:15;;;;;;;5.72;4.75;;;;;;;-146.25;100.00;57403.91;5050684;28;20675;-88
2023/06/28 09:53:50;;;;;;;5.53;5.18;;;;;;;-146.25;100.00;57403.91;5048593;28;20219;-88
2023/06/28 09:56:18;;;;;;;5.18;4.75;;;;;;;-146.25;100.00;57403.91;5046773;28;20296;-88
2023/06/28 09:58:47;;;;;;;5.25;4.85;;;;;;;-146.25;100.00;57403.91;5048948;28;20241;-90
2023/06/28 10:01:15;;;;;;;6.55;4.40;;;;;;;-146.25;100.00;57403.91;5047462;28;20292;-86
2023/06/28 10:03:45;;;;;;;9.20;5.00;;;;;;;-146.25;100.00;57403.91;5048018;28;20223;-88
2023/06/28 10:06:12;;;;;;;5.85;4.57;;;;;;;-146.25;100.00;57403.91;5048488;28;20247;-86
2023/06/28 10:08:40;;;;;;;7.85;4.57;;;;;;;-146.25;100.00;57403.91;5048394;28;20724;-86
2023/06/28 10:11:10;;;;;;;5.25;4.82;;;;;;;-146.25;100.00;57403.91;5047033;28;20607;-85
2023/06/28 10:13:41;;;;;;;5.15;4.75;;;;;;;-146.25;100.00;57403.91;5047663;28;20550;-88
2023/06/28 10:16:10;;;;;;;4.88;4.43;;;;;;;-146.25;100.00;57403.91;5047987;28;20234;-89
2023/06/28 10:18:38;;;;;;;6.72;4.72;;;;;;;-146.25;100.00;57403.91;5047653;28;20338;-91
2023/06/28 10:21:08;;;;;;;5.00;4.47;;;;;;;-146.25;100.00;57403.91;5048443;28;20562;-89
2023/06/28 10:23:35;;;;;;;4.32;4.07;;;;;;;-146.25;100.00;57403.91;5047905;28;20287;-89
2023/06/28 10:26:03;;;;;;;5.13;4.70;;;;;;;-146.25;100.00;57403.91;5046982;28;20258;-87
2023/06/28 10:28:34;;;;;;;4.70;4.32;;;;;;;-146.25;100.00;57403.91;5047386;28;20669;-87
2023/06/28 10:31:01;;;;;;;6.35;4.65;;;;;;;-146.25;100.00;57403.91;5047817;28;20250;-87
2023/06/28 10:33:31;;;;;;;5.13;4.75;;;;;;;-146.25;100.00;57403.91;5046437;28;20223;-88
2023/06/28 10:36:00;;;;;;;6.95;4.95;;;;;;;-146.25;100.00;57403.91;5047968;28;20219;-89
2023/06/28 10:38:29;;;;;;;5.90;5.05;;;;;;;-146.25;100.00;57403.91;5046539;28;20231;-88
2023/06/28 10:40:56;;;;;;;5.20;4.70;;;;;;;-146.25;100.00;57403.91;5047086;28;20666;-88
2023/06/28 10:43:25;;;;;;;6.85;5.00;;;;;;;-146.25;100.00;57403.91;5029883;28;20231;-88
2023/06/28 10:45:53;;;;;;;5.43;4.88;;;;;;;-146.25;100.00;57403.91;5027420;28;20289;-89
2023/06/28 10:48:22;;;;;;;4.70;4.25;;;;;;;-146.25;100.00;57403.91;5027382;28;20293;-90
2023/06/28 10:50:51;;;;;;;5.28;4.65;;;;;;;-146.25;100.00;57403.91;5027927;28;20590;-90
2023/06/28 10:53:22;;;;;;;4.57;4.15;;;;;;;-146.25;100.00;57403.91;5027932;28;20224;-88
2023/06/28 10:56:11;;;;;;;4.18;3.90;;;;;;;-146.25;100.00;57403.91;5028666;28;20293;-89
2023/06/28 10:58:40;;;;;;;4.45;4.15;;;;;;;-146.25;100.00;57403.91;5046673;28;20239;-88
2023/06/28 11:01:08;;;;;;;5.35;4.65;;;;;;;-146.25;100.00;57403.91;5046431;28;20246;-90
2023/06/28 11:03:39;;;;;;;4.03;3.80;;;;;;;-146.25;100.00;57403.91;5048068;28;20274;-87
2023/06/28 11:06:07;;;;;;;5.35;4.90;;;;;;;-146.25;100.00;57403.91;5047701;28;20219;-88
2023/06/28 11:08:40;;;;;;;6.38;4.68;;;;;;;-146.25;100.00;57403.91;5030814;28;20666;-90
2023/06/28 11:11:10;;;;;;;5.15;4.65;;;;;;;-146.25;100.00;57403.91;5034052;28;20219;-88
2023/06/28 11:13:46;;;;;;;4.68;4.28;;;;;;;-146.25;100.00;57403.91;5040185;28;20223;-89
2023/06/28 11:16:19;;;;;;;4.35;3.95;;;;;;;-146.25;100.00;57403.91;5031653;28;20223;-89
2023/06/28 11:18:48;;;;;;;4.78;4.38;;;;;;;-146.25;100.00;57403.91;5034774;28;20723;-89
2023/06/28 11:21:18;;;;;;;5.05;4.55;;;;;;;-146.25;100.00;57403.91;5050549;28;20231;-87